Time;durP1;ratioP1;P1;durP2;ratioP2;P2;SDS_P1;SDS_P2;PMS_P1;PMS_P2;Temp;Humidity;BMP_temperature;BMP_pressure;BME280_temperature;BME280_humidity;BME280_pressure;Samples;Min_cycle;Max_cycle;Signal;HPM_P1;HPM_P2
2022/12/20 00:00:44;;;;;;;18.67;14.57;;;;;;;3.08;100.00;98673.28;5072870;28;20660;-70
2022/12/20 00:03:11;;;;;;;18.07;12.87;;;;;;;3.03;100.00;98646.66;5073227;28;20212;-70
2022/12/20 00:05:39;;;;;;;18.60;13.33;;;;;;;3.16;100.00;98644.44;5072887;28;20660;-70
2022/12/20 00:08:06;;;;;;;18.43;13.70;;;;;;;3.12;100.00;98649.16;5073750;28;20238;-70
2022/12/20 00:10:43;;;;;;;19.33;14.87;;;;;;;3.23;100.00;98650.69;5072633;28;20615;-70
2022/12/20 00:13:09;;;;;;;17.57;13.97;;;;;;;3.17;100.00;98660.00;5072885;28;20672;-70
2022/12/20 00:15:36;;;;;;;16.83;12.97;;;;;;;3.16;100.00;98644.44;5073117;28;20212;-70
2022/12/20 00:18:03;;;;;;;20.37;14.50;;;;;;;3.21;100.00;98647.41;5073141;28;20205;-70
2022/12/20 00:20:30;;;;;;;19.37;14.90;;;;;;;3.21;100.00;98639.53;5072937;28;20205;-70
2022/12/20 00:22:57;;;;;;;16.43;13.73;;;;;;;3.11;100.00;98641.44;5072608;28;20215;-70
2022/12/20 00:25:24;;;;;;;19.40;14.17;;;;;;;3.16;100.00;98629.47;5073025;28;20205;-70
2022/12/20 00:27:51;;;;;;;22.47;15.60;;;;;;;3.11;100.00;98625.69;5073029;28;20205;-70
2022/12/20 00:30:17;;;;;;;20.87;14.73;;;;;;;3.16;100.00;98615.53;5072882;28;20228;-70
2022/12/20 00:32:44;;;;;;;18.83;14.43;;;;;;;3.01;100.00;98612.66;5072820;28;20254;-70
2022/12/20 00:35:11;;;;;;;18.33;14.03;;;;;;;2.93;100.00;98611.81;5072920;28;20204;-70
2022/12/20 00:37:38;;;;;;;17.57;14.23;;;;;;;2.91;100.00;98626.91;5072903;28;20208;-70
2022/12/20 00:40:06;;;;;;;18.87;14.50;;;;;;;2.86;100.00;98619.50;5072909;28;20208;-70
2022/12/20 00:42:33;;;;;;;20.40;14.83;;;;;;;2.92;100.00;98620.66;5072773;28;20224;-70
2022/12/20 00:44:59;;;;;;;21.30;14.93;;;;;;;2.91;100.00;98613.78;5072872;28;20200;-70
2022/12/20 00:47:25;;;;;;;20.93;15.63;;;;;;;2.92;100.00;98616.25;5075363;28;20204;-70
2022/12/20 00:49:52;;;;;;;19.77;14.23;;;;;;;2.91;100.00;98621.66;5075952;28;20391;-70
2022/12/20 00:52:18;;;;;;;17.67;14.33;;;;;;;2.91;100.00;98621.66;5076202;28;20305;-71
2022/12/20 00:54:44;;;;;;;19.87;15.60;;;;;;;2.92;100.00;98623.28;5076173;28;20571;-70
2022/12/20 00:57:11;;;;;;;20.60;14.87;;;;;;;2.93;100.00;98632.84;5076186;28;20212;-71
2022/12/20 00:59:37;;;;;;;20.63;14.70;;;;;;;3.11;100.00;98617.81;5076191;28;20208;-70
2022/12/20 01:02:03;;;;;;;19.87;14.60;;;;;;;3.07;100.00;98619.09;5076063;28;20247;-70
2022/12/20 01:04:30;;;;;;;19.23;15.13;;;;;;;3.18;100.00;98619.63;5076107;28;20208;-70
2022/12/20 01:06:56;;;;;;;18.00;13.97;;;;;;;3.11;100.00;98621.25;5076050;28;20201;-70
2022/12/20 01:09:22;;;;;;;21.10;14.40;;;;;;;3.12;100.00;98622.06;5075958;28;20205;-70
2022/12/20 01:11:49;;;;;;;18.67;14.53;;;;;;;3.07;100.00;98629.63;5075816;28;20243;-70
2022/12/20 01:14:15;;;;;;;18.03;14.63;;;;;;;3.05;100.00;98631.56;5075753;28;20200;-70
2022/12/20 01:16:47;;;;;;;16.23;14.30;;;;;;;3.10;100.00;98642.41;5075485;28;20567;-70
2022/12/20 01:19:16;;;;;;;18.47;14.30;;;;;;;3.09;100.00;98640.78;5075482;28;20632;-70
2022/12/20 01:21:44;;;;;;;21.00;14.90;;;;;;;3.08;100.00;98647.00;5075486;28;20232;-71
2022/12/20 01:24:15;;;;;;;19.30;14.43;;;;;;;3.01;100.00;98638.94;5075449;28;20204;-70
2022/12/20 01:26:42;;;;;;;18.70;15.07;;;;;;;2.94;100.00;98637.91;5075343;28;20640;-70
2022/12/20 01:29:08;;;;;;;18.67;14.37;;;;;;;3.03;100.00;98636.16;5075622;28;20210;-70
2022/12/20 01:31:35;;;;;;;19.23;14.83;;;;;;;3.07;100.00;98634.88;5075498;28;20237;-70
2022/12/20 01:34:01;;;;;;;18.97;14.97;;;;;;;2.96;100.00;98625.47;5075540;28;20204;-70
2022/12/20 01:36:34;;;;;;;21.40;15.07;;;;;;;2.91;100.00;98619.03;5075546;28;20205;-70
2022/12/20 01:39:10;;;;;;;19.37;14.07;;;;;;;2.92;100.00;98623.28;5075172;28;20682;-70
2022/12/20 01:41:38;;;;;;;16.33;13.77;;;;;;;2.83;100.00;98624.22;5075379;28;20224;-70
2022/12/20 01:44:27;;;;;;;17.47;13.47;;;;;;;2.80;100.00;98614.88;5075042;28;20671;-70
2022/12/20 01:46:54;;;;;;;18.40;14.77;;;;;;;2.80;100.00;98616.69;5074967;28;20205;-70
2022/12/20 01:49:29;;;;;;;18.90;14.60;;;;;;;2.78;100.00;98610.75;5075215;28;20208;-71
2022/12/20 01:52:04;;;;;;;18.70;14.03;;;;;;;2.80;100.00;98616.69;5073823;28;20228;-70
2022/12/20 01:54:36;;;;;;;18.87;14.63;;;;;;;2.80;100.00;98612.25;5074980;28;20193;-70
2022/12/20 01:57:09;;;;;;;18.77;13.73;;;;;;;2.80;100.00;98606.19;5074638;28;20556;-70
2022/12/20 01:59:38;;;;;;;19.03;14.53;;;;;;;2.80;100.00;98606.97;5075028;28;20227;-70
2022/12/20 02:02:09;;;;;;;17.90;13.53;;;;;;;2.85;100.00;98620.47;5074920;28;20228;-70
2022/12/20 02:04:35;;;;;;;16.40;13.60;;;;;;;3.00;100.00;98599.69;5074661;28;20189;-70
2022/12/20 02:07:03;;;;;;;16.17;12.73;;;;;;;3.24;100.00;98582.22;5074529;28;20205;-70
2022/12/20 02:09:32;;;;;;;17.33;14.17;;;;;;;2.99;100.00;98606.75;5075636;28;20215;-71
2022/12/20 02:12:41;;;;;;;18.37;13.57;;;;;;;3.16;100.00;98590.06;5074646;28;20233;-70
2022/12/20 02:15:28;;;;;;;18.53;13.77;;;;;;;3.25;100.00;98588.31;5032559;28;20309;-70
2022/12/20 02:18:03;;;;;;;16.47;13.27;;;;;;;3.08;100.00;98586.59;5032431;28;20670;-70
2022/12/20 02:20:48;;;;;;;18.17;13.27;;;;;;;3.12;100.00;98590.56;5062194;28;20204;-70
2022/12/20 02:23:38;;;;;;;16.77;13.33;;;;;;;3.06;100.00;98585.91;5074543;28;20189;-70
2022/12/20 02:27:00;;;;;;;17.67;13.57;;;;;;;3.04;100.00;98577.38;5074202;28;20632;-70
2022/12/20 02:29:43;;;;;;;17.23;14.23;;;;;;;3.05;100.00;98584.28;5020754;28;20202;-70
2022/12/20 02:32:12;;;;;;;18.20;13.97;;;;;;;3.04;100.00;98582.63;5070106;28;20236;-70
2022/12/20 02:34:41;;;;;;;17.63;13.17;;;;;;;2.99;100.00;98569.16;5074327;28;20611;-70
2022/12/20 02:37:07;;;;;;;16.00;13.20;;;;;;;2.84;100.00;98568.13;5074244;28;20204;-70
2022/12/20 02:39:35;;;;;;;17.50;13.10;;;;;;;2.94;100.00;98569.63;5073903;28;20742;-70
2022/12/20 02:42:07;;;;;;;18.30;13.23;;;;;;;2.82;100.00;98584.03;5074137;28;20232;-70
2022/12/20 02:47:52;;;;;;;19.20;14.10;;;;;;;3.00;100.00;98562.94;5073168;28;20260;-70
2022/12/20 02:50:23;;;;;;;16.43;13.30;;;;;;;2.96;100.00;98567.69;5072597;28;20212;-70
2022/12/20 02:52:51;;;;;;;18.20;13.97;;;;;;;3.02;100.00;98564.41;5073679;28;20711;-70
2022/12/20 02:55:19;;;;;;;17.17;13.30;;;;;;;3.03;100.00;98560.78;5073977;28;20551;-70
2022/12/20 02:57:46;;;;;;;17.40;13.63;;;;;;;2.91;100.00;98556.00;5073832;28;20208;-70
2022/12/20 03:00:15;;;;;;;17.50;13.30;;;;;;;3.06;100.00;98543.88;5073870;28;20231;-70
2022/12/20 03:05:27;;;;;;;14.37;12.53;;;;;;;3.09;100.00;98543.59;5073921;28;20245;-70
2022/12/20 03:07:54;;;;;;;18.40;14.23;;;;;;;3.12;100.00;98543.28;5073781;28;20211;-70
2022/12/20 03:10:22;;;;;;;17.20;13.10;;;;;;;3.05;100.00;98537.00;5073204;28;20262;-70
2022/12/20 03:12:48;;;;;;;16.90;13.30;;;;;;;2.82;100.00;98533.31;5074117;28;20224;-70
2022/12/20 03:15:15;;;;;;;17.07;13.03;;;;;;;2.88;100.00;98535.31;5073730;28;20212;-70
2022/12/20 03:17:41;;;;;;;15.53;12.40;;;;;;;2.94;100.00;98532.88;5073681;28;20212;-70
2022/12/20 03:20:10;;;;;;;17.10;13.53;;;;;;;2.88;100.00;98546.63;5073646;28;20208;-70
2022/12/20 03:22:36;;;;;;;18.93;13.33;;;;;;;2.81;100.00;98519.38;5073123;28;20331;-70
2022/12/20 03:25:03;;;;;;;17.07;13.17;;;;;;;2.83;100.00;98527.91;5073609;28;20231;-70
2022/12/20 03:27:30;;;;;;;17.53;12.53;;;;;;;2.91;100.00;98527.94;5073245;28;20208;-69
2022/12/20 03:29:56;;;;;;;18.03;13.07;;;;;;;2.95;100.00;98515.31;5073072;28;20304;-71
2022/12/20 03:32:22;;;;;;;16.27;12.80;;;;;;;3.03;100.00;98508.25;5073165;28;20657;-71
2022/12/20 03:34:49;;;;;;;16.97;13.10;;;;;;;3.18;100.00;98500.59;5072789;28;20200;-71
2022/12/20 03:37:16;;;;;;;16.67;12.47;;;;;;;3.05;100.00;98511.56;5073021;28;20211;-71
2022/12/20 03:39:42;;;;;;;17.03;13.33;;;;;;;3.08;100.00;98515.69;5073015;28;20258;-71
2022/12/20 03:42:08;;;;;;;18.03;13.10;;;;;;;3.16;100.00;98513.06;5073183;28;20228;-71
2022/12/20 03:44:35;;;;;;;18.00;13.33;;;;;;;3.17;100.00;98518.16;5073243;28;20592;-71
2022/12/20 03:47:01;;;;;;;18.53;13.20;;;;;;;3.06;100.00;98520.25;5073173;28;20212;-71
2022/12/20 03:49:28;;;;;;;20.53;14.70;;;;;;;3.10;100.00;98537.34;5073281;28;20570;-71
2022/12/20 03:51:54;;;;;;;18.50;13.00;;;;;;;3.05;100.00;98529.13;5073097;28;20252;-71
2022/12/20 03:54:20;;;;;;;20.37;14.37;;;;;;;3.01;100.00;98525.16;5073003;28;20209;-71
2022/12/20 03:56:47;;;;;;;17.13;13.13;;;;;;;3.35;100.00;98521.47;5073284;28;20212;-70
2022/12/20 03:59:13;;;;;;;16.57;13.47;;;;;;;3.15;100.00;98520.13;5073237;28;20212;-70
2022/12/20 04:01:40;;;;;;;19.67;14.40;;;;;;;3.21;100.00;98508.97;5073119;28;20223;-70
2022/12/20 04:04:10;;;;;;;18.37;13.90;;;;;;;3.16;100.00;98505.19;5073107;28;20201;-71
2022/12/20 04:06:36;;;;;;;19.10;13.83;;;;;;;3.16;100.00;98507.81;5073035;28;20215;-71
2022/12/20 04:09:02;;;;;;;18.37;13.37;;;;;;;3.22;100.00;98504.53;5072824;28;20307;-70
2022/12/20 04:11:29;;;;;;;17.93;13.53;;;;;;;3.21;100.00;98508.97;5072876;28;20229;-70
2022/12/20 04:13:55;;;;;;;17.53;13.20;;;;;;;3.32;100.00;98502.56;5073061;28;20216;-70
2022/12/20 04:16:27;;;;;;;16.70;12.50;;;;;;;3.46;100.00;98483.53;5072758;28;20298;-70
2022/12/20 04:18:53;;;;;;;16.33;12.97;;;;;;;3.50;100.00;98484.84;5072657;28;20215;-71
2022/12/20 04:21:25;;;;;;;17.13;12.63;;;;;;;3.57;100.00;98485.84;5073443;28;20738;-70
2022/12/20 04:23:51;;;;;;;16.40;12.53;;;;;;;3.51;100.00;98491.75;5076794;28;20567;-70
2022/12/20 04:26:18;;;;;;;16.60;12.37;;;;;;;3.71;100.00;98485.97;5076392;28;20209;-70
2022/12/20 04:28:45;;;;;;;18.47;11.70;;;;;;;3.61;100.00;98489.78;5076325;28;20208;-70
2022/12/20 04:31:12;;;;;;;14.97;11.40;;;;;;;3.51;100.00;98487.31;5076170;28;20382;-70
2022/12/20 04:33:39;;;;;;;16.63;12.07;;;;;;;3.53;100.00;98495.03;5076577;28;20205;-71
2022/12/20 04:36:06;;;;;;;16.20;12.20;;;;;;;3.49;100.00;98514.75;5076442;28;20243;-71
2022/12/20 04:38:33;;;;;;;15.23;12.17;;;;;;;3.48;100.00;98497.34;5076355;28;20204;-71
2022/12/20 04:40:59;;;;;;;16.63;12.33;;;;;;;3.53;100.00;98490.59;5076149;28;20217;-71
2022/12/20 04:43:26;;;;;;;15.97;11.17;;;;;;;3.84;100.00;98481.03;5076304;28;20209;-71
2022/12/20 04:45:55;;;;;;;15.27;11.63;;;;;;;3.60;100.00;98474.97;5076245;28;20219;-71
2022/12/20 04:48:25;;;;;;;15.17;11.20;;;;;;;3.68;100.00;98478.44;5076073;28;20204;-71
2022/12/20 04:50:53;;;;;;;15.97;11.23;;;;;;;3.48;100.00;98466.59;5076106;28;20221;-71
2022/12/20 04:56:04;;;;;;;15.53;11.53;;;;;;;3.57;100.00;98476.13;5075943;28;20198;-71
2022/12/20 04:58:31;;;;;;;15.53;11.27;;;;;;;3.46;100.00;98465.97;5076048;28;20211;-71
2022/12/20 05:00:57;;;;;;;16.73;11.43;;;;;;;3.55;100.00;98464.97;5075878;28;20217;-71
2022/12/20 05:03:26;;;;;;;15.23;11.80;;;;;;;3.51;100.00;98468.91;5075392;28;20687;-71
2022/12/20 05:05:53;;;;;;;16.23;11.97;;;;;;;3.56;100.00;98469.25;5075347;28;20208;-71
2022/12/20 05:08:19;;;;;;;15.03;11.87;;;;;;;3.53;100.00;98463.50;5075459;28;20216;-71
2022/12/20 05:10:47;;;;;;;16.83;11.43;;;;;;;3.54;100.00;98449.38;5075014;28;20211;-71
2022/12/20 05:13:13;;;;;;;16.53;12.67;;;;;;;3.57;100.00;98446.41;5075886;28;20214;-71
2022/12/20 05:15:40;;;;;;;16.10;12.07;;;;;;;3.51;100.00;98450.53;5075594;28;20288;-71
2022/12/20 05:18:06;;;;;;;14.57;11.70;;;;;;;3.54;100.00;98450.19;5075321;28;20744;-71
2022/12/20 05:20:33;;;;;;;14.47;11.43;;;;;;;3.60;100.00;98448.69;5075319;28;20208;-71
2022/12/20 05:28:30;;;;;;;16.17;12.53;;;;;;;3.60;100.00;98439.00;5068226;28;20201;-71
2022/12/20 05:30:57;;;;;;;18.43;12.17;;;;;;;3.50;100.00;98438.38;5074717;28;20765;-71
2022/12/20 05:33:23;;;;;;;16.43;12.60;;;;;;;3.49;100.00;98439.38;5074552;28;20208;-71
2022/12/20 05:35:50;;;;;;;19.80;12.90;;;;;;;3.59;100.00;98437.38;5075037;28;20243;-70
2022/12/20 05:38:16;;;;;;;18.70;11.63;;;;;;;3.60;100.00;98428.50;5074636;28;20206;-70
2022/12/20 05:40:43;;;;;;;14.80;11.37;;;;;;;3.58;100.00;98430.47;5074813;28;20262;-70
2022/12/20 05:43:10;;;;;;;13.90;10.93;;;;;;;3.65;100.00;98425.34;5074908;28;20219;-70
2022/12/20 05:45:37;;;;;;;16.17;11.77;;;;;;;3.65;100.00;98428.81;5074276;28;20205;-70
2022/12/20 05:48:03;;;;;;;15.57;11.30;;;;;;;3.59;100.00;98426.03;5074278;28;20204;-70
2022/12/20 05:50:30;;;;;;;15.37;11.70;;;;;;;3.54;100.00;98421.28;5074821;28;20205;-70
2022/12/20 05:52:56;;;;;;;16.23;11.23;;;;;;;3.53;100.00;98416.19;5074796;28;20315;-70
2022/12/20 05:55:22;;;;;;;16.67;11.93;;;;;;;3.69;100.00;98413.53;5074873;28;20307;-70
2022/12/20 05:57:49;;;;;;;13.87;11.40;;;;;;;3.57;100.00;98409.63;5074535;28;20204;-70
2022/12/20 06:00:16;;;;;;;16.53;12.30;;;;;;;3.69;100.00;98406.47;5074008;28;20262;-70
2022/12/20 06:02:42;;;;;;;15.13;11.87;;;;;;;3.55;100.00;98403.69;5074268;28;20231;-70
2022/12/20 06:05:09;;;;;;;15.83;11.60;;;;;;;3.49;100.00;98401.72;5074379;28;20227;-70
2022/12/20 06:07:35;;;;;;;15.17;11.80;;;;;;;3.40;100.00;98407.97;5073734;28;20215;-71
2022/12/20 06:10:01;;;;;;;15.67;11.70;;;;;;;3.59;100.00;98408.47;5074571;28;20208;-70
2022/12/20 06:12:28;;;;;;;14.87;11.87;;;;;;;3.54;100.00;98412.56;5073949;28;20617;-70
2022/12/20 06:14:54;;;;;;;15.00;11.83;;;;;;;3.36;100.00;98415.38;5074174;28;20201;-70
2022/12/20 06:17:21;;;;;;;14.63;11.37;;;;;;;3.31;100.00;98432.63;5074149;28;20200;-71
2022/12/20 06:19:47;;;;;;;15.77;11.53;;;;;;;3.47;100.00;98428.19;5074447;28;20212;-70
2022/12/20 06:22:14;;;;;;;15.07;11.57;;;;;;;3.56;100.00;98427.19;5073007;28;20238;-70
2022/12/20 06:24:40;;;;;;;15.37;11.37;;;;;;;3.51;100.00;98413.72;5073986;28;20200;-70
2022/12/20 06:27:06;;;;;;;13.50;10.80;;;;;;;3.54;100.00;98412.56;5073925;28;20204;-71
2022/12/20 06:29:33;;;;;;;14.97;10.87;;;;;;;3.52;100.00;98419.81;5073946;28;20209;-70
2022/12/20 06:31:59;;;;;;;15.47;11.30;;;;;;;3.62;100.00;98408.09;5073778;28;20225;-70
2022/12/20 06:34:27;;;;;;;14.20;11.03;;;;;;;3.50;100.00;98421.75;5074646;28;20210;-70
2022/12/20 06:36:53;;;;;;;15.17;11.63;;;;;;;3.47;100.00;98433.44;5073718;28;20234;-71
2022/12/20 06:39:19;;;;;;;15.33;10.77;;;;;;;3.75;100.00;98433.91;5073698;28;20205;-71
2022/12/20 06:41:46;;;;;;;14.33;11.17;;;;;;;3.63;100.00;98428.19;5073674;28;20224;-70
2022/12/20 06:44:12;;;;;;;16.17;11.17;;;;;;;3.71;100.00;98428.13;5073259;28;20204;-70
2022/12/20 06:46:38;;;;;;;13.77;11.20;;;;;;;3.64;100.00;98428.97;5073761;28;20204;-70
2022/12/20 06:49:05;;;;;;;14.50;11.83;;;;;;;3.67;100.00;98434.72;5073605;28;20212;-70
2022/12/20 06:51:31;;;;;;;14.73;10.87;;;;;;;3.63;100.00;98430.81;5073416;28;20224;-75
2022/12/20 06:53:57;;;;;;;15.97;11.30;;;;;;;3.81;100.00;98431.44;5073003;28;20712;-70
2022/12/20 06:56:24;;;;;;;13.37;10.23;;;;;;;3.86;100.00;98438.81;5073351;28;20691;-71
2022/12/20 06:58:50;;;;;;;11.40;9.87;;;;;;;3.89;100.00;98425.34;5073271;28;20213;-70
2022/12/20 07:01:16;;;;;;;13.13;10.97;;;;;;;3.74;100.00;98432.25;5073474;28;20220;-70
2022/12/20 07:03:43;;;;;;;15.30;10.97;;;;;;;3.83;100.00;98418.09;5073605;28;20201;-74
2022/12/20 07:06:09;;;;;;;15.70;11.33;;;;;;;3.82;100.00;98421.72;5073529;28;20211;-69
2022/12/20 07:08:35;;;;;;;12.87;10.93;;;;;;;3.71;100.00;98425.50;5073383;28;20201;-69
2022/12/20 07:11:08;;;;;;;14.47;10.30;;;;;;;3.72;100.00;98427.19;5073246;28;20232;-69
2022/12/20 07:13:35;;;;;;;13.13;10.27;;;;;;;3.65;100.00;98425.34;5073228;28;20207;-68
2022/12/20 07:16:02;;;;;;;15.30;11.57;;;;;;;3.64;100.00;98424.56;5063352;28;20200;-69
2022/12/20 07:18:29;;;;;;;14.07;10.53;;;;;;;3.76;100.00;98430.28;5058881;28;20204;-69
2022/12/20 07:21:00;;;;;;;14.00;11.07;;;;;;;3.65;100.00;98430.59;5052546;28;20301;-69
2022/12/20 07:23:26;;;;;;;15.57;11.40;;;;;;;3.78;100.00;98420.41;5052624;28;20629;-69
2022/12/20 07:25:55;;;;;;;14.33;10.80;;;;;;;3.85;100.00;98427.44;5053345;28;20212;-69
2022/12/20 07:28:21;;;;;;;12.93;10.37;;;;;;;3.90;100.00;98427.81;5053035;28;20557;-69
2022/12/20 07:30:48;;;;;;;12.83;10.10;;;;;;;3.80;100.00;98431.59;5052945;28;20225;-69
2022/12/20 07:33:14;;;;;;;13.30;9.93;;;;;;;3.75;100.00;98426.03;5052818;28;20231;-69
2022/12/20 07:35:40;;;;;;;15.13;10.40;;;;;;;3.75;100.00;98429.44;5053071;28;20621;-69
2022/12/20 07:38:07;;;;;;;13.43;10.03;;;;;;;3.96;100.00;98426.28;5052638;28;20204;-69
2022/12/20 07:40:33;;;;;;;13.90;10.10;;;;;;;4.04;100.00;98423.63;5052648;28;20212;-69
2022/12/20 07:43:27;;;;;;;14.53;10.03;;;;;;;4.05;100.00;98427.91;5052853;28;20204;-69
2022/12/20 07:45:56;;;;;;;14.33;9.27;;;;;;;4.18;100.00;98413.25;5053265;28;20224;-69
2022/12/20 07:48:23;;;;;;;15.97;10.23;;;;;;;4.06;100.00;98419.00;5052726;28;20209;-69
2022/12/20 07:50:53;;;;;;;15.43;9.77;;;;;;;4.20;100.00;98421.78;5063367;28;20668;-72
2022/12/20 07:53:23;;;;;;;12.43;9.33;;;;;;;4.14;100.00;98416.38;5073018;28;20224;-71
2022/12/20 07:55:49;;;;;;;11.87;9.53;;;;;;;4.18;100.00;98412.41;5074377;28;20287;-72
2022/12/20 07:58:17;;;;;;;14.63;9.43;;;;;;;4.34;100.00;98415.00;5076904;28;20235;-71
2022/12/20 08:00:44;;;;;;;12.30;9.03;;;;;;;4.36;100.00;98416.47;5076567;28;20205;-71
2022/12/20 08:03:19;;;;;;;12.33;9.40;;;;;;;4.34;100.00;98426.31;5072784;28;20197;-72
2022/12/20 08:05:49;;;;;;;13.33;9.87;;;;;;;4.41;100.00;98418.56;5056888;28;20193;-72
2022/12/20 08:08:17;;;;;;;12.87;9.47;;;;;;;4.29;100.00;98426.00;5056725;28;20209;-72
2022/12/20 08:10:43;;;;;;;10.97;8.60;;;;;;;4.43;100.00;98422.66;5056715;28;20209;-72
2022/12/20 08:13:10;;;;;;;12.43;9.27;;;;;;;4.41;100.00;98423.81;5056509;28;20225;-72
2022/12/20 08:15:36;;;;;;;12.00;9.57;;;;;;;4.28;100.00;98419.13;5056534;28;20201;-71
2022/12/20 08:18:05;;;;;;;12.63;9.33;;;;;;;4.41;100.00;98424.66;5056587;28;20572;-72
2022/12/20 08:20:31;;;;;;;13.17;9.23;;;;;;;4.50;100.00;98420.16;5056579;28;20201;-72
2022/12/20 08:22:58;;;;;;;13.50;9.27;;;;;;;4.56;100.00;98411.59;5056517;28;20209;-72
2022/12/20 08:25:24;;;;;;;11.00;8.70;;;;;;;4.48;100.00;98404.53;5056187;28;20684;-72
2022/12/20 08:27:51;;;;;;;13.80;9.57;;;;;;;4.57;100.00;98407.97;5056267;28;20205;-71
2022/12/20 08:30:18;;;;;;;11.50;8.67;;;;;;;4.42;100.00;98409.66;5056608;28;20235;-72
2022/12/20 08:32:44;;;;;;;18.20;9.80;;;;;;;4.55;100.00;98399.41;5056033;28;20243;-72
2022/12/20 08:35:11;;;;;;;13.13;9.50;;;;;;;4.51;100.00;98393.66;5055762;28;20210;-72
2022/12/20 08:37:38;;;;;;;13.03;9.63;;;;;;;4.42;100.00;98389.44;5055908;28;20730;-72
2022/12/20 08:40:06;;;;;;;12.63;9.30;;;;;;;4.50;100.00;98383.31;5056301;28;20209;-72
2022/12/20 08:42:32;;;;;;;13.80;9.50;;;;;;;4.57;100.00;98384.28;5055569;28;20217;-72
2022/12/20 08:44:59;;;;;;;13.07;9.63;;;;;;;4.51;100.00;98385.78;5056569;28;20211;-72
2022/12/20 08:47:25;;;;;;;13.40;8.93;;;;;;;4.60;100.00;98386.53;5055953;28;20209;-72
2022/12/20 08:49:51;;;;;;;10.70;8.53;;;;;;;4.75;100.00;98382.97;5055934;28;20215;-72
2022/12/20 08:52:18;;;;;;;12.80;9.10;;;;;;;4.69;100.00;98385.50;5055719;28;20225;-72
2022/12/20 08:54:44;;;;;;;13.00;8.47;;;;;;;4.97;100.00;98369.00;5055848;28;20228;-73
2022/12/20 08:57:10;;;;;;;9.53;7.90;;;;;;;5.12;100.00;98366.44;5055931;28;20209;-72
2022/12/20 08:59:37;;;;;;;12.13;8.17;;;;;;;5.02;100.00;98368.50;5055656;28;20224;-72
2022/12/20 09:02:03;;;;;;;11.67;8.07;;;;;;;5.21;100.00;98362.72;5055911;28;20225;-71
2022/12/20 09:04:29;;;;;;;12.57;8.43;;;;;;;5.27;100.00;98370.75;5056157;28;20208;-72
2022/12/20 09:06:56;;;;;;;11.80;8.27;;;;;;;5.20;100.00;98372.44;5054951;28;20209;-72
2022/12/20 09:09:22;;;;;;;10.37;7.83;;;;;;;5.47;100.00;98365.81;5055508;28;20216;-72
2022/12/20 09:11:49;;;;;;;9.30;7.77;;;;;;;5.20;100.00;98363.75;5055357;28;20726;-72
2022/12/20 09:14:15;;;;;;;9.67;7.93;;;;;;;5.22;100.00;98361.72;5055414;28;20213;-72
2022/12/20 09:16:41;;;;;;;11.80;8.30;;;;;;;5.09;100.00;98361.50;5055555;28;20201;-72
2022/12/20 09:19:08;;;;;;;11.90;8.10;;;;;;;5.29;100.00;98362.66;5055555;28;20208;-72
2022/12/20 09:21:34;;;;;;;14.97;8.03;;;;;;;5.38;100.00;98348.41;5054998;28;20724;-72
2022/12/20 09:24:01;;;;;;;11.33;8.10;;;;;;;5.48;100.00;98354.25;5055445;28;20208;-72
2022/12/20 09:26:27;;;;;;;10.13;8.20;;;;;;;5.53;100.00;98351.88;5055241;28;20201;-72
2022/12/20 09:28:54;;;;;;;11.80;7.53;;;;;;;5.56;100.00;98362.09;5054867;28;20209;-72
2022/12/20 09:31:24;;;;;;;10.80;7.53;;;;;;;5.62;100.00;98362.19;5054846;28;20229;-72
2022/12/20 09:33:53;;;;;;;10.33;7.43;;;;;;;5.78;100.00;98361.19;5055144;28;20232;-72
2022/12/20 09:36:22;;;;;;;11.80;7.40;;;;;;;5.70;100.00;98356.81;5055498;28;20208;-72
2022/12/20 09:38:49;;;;;;;8.97;7.17;;;;;;;5.64;100.00;98362.81;5054710;28;20212;-72
2022/12/20 09:41:28;;;;;;;14.57;7.53;;;;;;;5.75;100.00;98356.28;5054761;28;20593;-73
2022/12/20 09:43:55;;;;;;;9.77;7.53;;;;;;;5.56;100.00;98341.00;5055008;28;20189;-72
2022/12/20 09:46:23;;;;;;;12.00;8.60;;;;;;;5.46;100.00;98354.44;5054689;28;20221;-72
2022/12/20 09:48:50;;;;;;;11.57;8.00;;;;;;;5.58;100.00;98350.34;5055062;28;20304;-72
2022/12/20 09:51:22;;;;;;;11.30;8.60;;;;;;;5.72;100.00;98346.09;5055313;28;20575;-72
2022/12/20 09:54:10;;;;;;;11.27;8.70;;;;;;;5.55;100.00;98352.50;5053723;28;20221;-72
2022/12/20 09:56:42;;;;;;;10.93;7.80;;;;;;;5.65;100.00;98342.53;5055001;28;20194;-72
2022/12/20 09:59:18;;;;;;;9.23;7.47;;;;;;;5.65;100.00;98335.44;5053594;28;20201;-72
2022/12/20 10:01:47;;;;;;;10.53;7.90;;;;;;;5.91;100.00;98332.38;5054495;28;20251;-71
2022/12/20 10:04:28;;;;;;;10.23;7.77;;;;;;;5.89;100.00;98323.84;5054758;28;20207;-71
2022/12/20 10:07:14;;;;;;;10.00;7.77;;;;;;;5.88;100.00;98328.28;5054198;28;20668;-71
2022/12/20 10:10:17;;;;;;;11.00;7.83;;;;;;;5.92;100.00;98318.19;5052882;28;20633;-71
2022/12/20 10:13:12;;;;;;;10.37;7.63;;;;;;;5.72;100.00;98314.44;5052873;28;20247;-72
2022/12/20 10:15:50;;;;;;;12.37;8.00;;;;;;;5.93;100.00;98311.91;5037416;28;20197;-72
2022/12/20 10:18:39;;;;;;;13.33;8.33;;;;;;;5.99;100.00;98319.09;5054245;28;20189;-71
2022/12/20 10:21:20;;;;;;;12.37;8.23;;;;;;;5.79;100.00;98320.63;5053629;28;20763;-72
2022/12/20 10:23:56;;;;;;;9.77;7.93;;;;;;;5.96;100.00;98319.44;5054065;28;20230;-73
2022/12/20 10:26:23;;;;;;;14.83;8.93;;;;;;;5.96;100.00;98322.91;5053824;28;20193;-73
2022/12/20 10:28:49;;;;;;;11.70;8.20;;;;;;;6.08;100.00;98315.34;5053913;28;20577;-73
2022/12/20 10:31:18;;;;;;;10.97;8.60;;;;;;;6.01;100.00;98306.53;5053521;28;20781;-74
2022/12/20 10:33:45;;;;;;;14.50;8.70;;;;;;;6.07;100.00;98305.81;5053421;28;20225;-73
2022/12/20 10:36:27;;;;;;;13.80;8.80;;;;;;;6.08;100.00;98308.25;5053140;28;20660;-74
2022/12/20 10:38:59;;;;;;;9.17;8.23;;;;;;;6.18;100.00;98303.50;5053533;28;20210;-74
2022/12/20 10:41:28;;;;;;;10.03;7.80;;;;;;;6.24;100.00;98307.22;5053828;28;20232;-74
2022/12/20 10:44:04;;;;;;;11.60;8.50;;;;;;;6.20;100.00;98293.56;5053912;28;20228;-74
2022/12/20 10:46:43;;;;;;;11.47;8.17;;;;;;;6.07;100.00;98295.25;5036353;28;20640;-73
2022/12/20 10:49:29;;;;;;;9.93;7.87;;;;;;;6.18;100.00;98302.66;5052233;28;20185;-73
2022/12/20 10:51:59;;;;;;;9.70;7.47;;;;;;;6.24;100.00;98301.94;5053371;28;20252;-74
2022/12/20 10:54:31;;;;;;;12.27;8.60;;;;;;;6.26;100.00;98294.66;5053252;28;20225;-73
2022/12/20 10:57:03;;;;;;;10.07;7.60;;;;;;;6.12;100.00;98292.88;5053408;28;20209;-73
2022/12/20 10:59:34;;;;;;;10.43;8.07;;;;;;;6.27;100.00;98277.81;5052882;28;20190;-73
2022/12/20 11:02:00;;;;;;;12.17;7.80;;;;;;;6.26;100.00;98278.81;5053871;28;20627;-74
2022/12/20 11:04:37;;;;;;;8.67;7.70;;;;;;;6.38;100.00;98272.03;5053080;28;20205;-73
2022/12/20 11:07:23;;;;;;;9.07;7.47;;;;;;;6.43;100.00;98272.31;5053400;28;20189;-73
2022/12/20 11:09:56;;;;;;;10.83;7.93;;;;;;;6.48;100.00;98262.00;5053293;28;20197;-73
2022/12/20 11:12:23;;;;;;;11.63;7.13;;;;;;;6.81;100.00;98263.94;5052952;28;20225;-73
2022/12/20 11:14:50;;;;;;;8.90;7.30;;;;;;;6.79;100.00;98265.94;5053055;28;20205;-73
2022/12/20 11:17:19;;;;;;;9.90;7.43;;;;;;;6.80;100.00;98264.94;5053120;28;20201;-73
2022/12/20 11:20:13;;;;;;;10.10;7.87;;;;;;;6.65;100.00;98260.75;5053146;28;20216;-73
2022/12/20 11:22:48;;;;;;;9.37;7.07;;;;;;;6.78;100.00;98253.72;5036808;28;20275;-73
2022/12/20 11:25:14;;;;;;;10.07;7.70;;;;;;;7.01;100.00;98259.63;5052899;28;20204;-73
2022/12/20 11:28:03;;;;;;;8.60;7.30;;;;;;;7.05;100.00;98250.31;5053036;28;20292;-73
2022/12/20 11:30:55;;;;;;;9.23;7.40;;;;;;;7.01;100.00;98248.25;5052457;28;20593;-73
2022/12/20 11:33:30;;;;;;;10.43;7.03;;;;;;;7.07;100.00;98252.75;5052817;28;20218;-73
2022/12/20 11:36:37;;;;;;;8.23;6.43;;;;;;;7.19;100.00;98244.09;5053369;28;20215;-73
2022/12/20 11:39:23;;;;;;;7.60;6.90;;;;;;;7.22;100.00;98241.09;5053011;28;20193;-74
2022/12/20 11:41:59;;;;;;;12.00;7.53;;;;;;;7.00;100.00;98241.31;5053197;28;20229;-73
2022/12/20 11:44:37;;;;;;;12.00;7.07;;;;;;;7.07;100.00;98231.59;5052761;28;20189;-73